sensor_id;sensor_type;location;lat;lon;timestamp;P1;durP1;ratioP1;P2;durP2;ratioP2
62580;SDS011;48640;48.770;9.148;2023-07-30T00:00:37;4.25;;;1.80;;
62580;SDS011;48640;48.770;9.148;2023-07-30T00:03:04;2.58;;;0.88;;
62580;SDS011;48640;48.770;9.148;2023-07-30T00:05:32;1.40;;;0.80;;
62580;SDS011;48640;48.770;9.148;2023-07-30T00:07:59;1.63;;;0.95;;
62580;SDS011;48640;48.770;9.148;2023-07-30T00:10:26;2.53;;;0.85;;
62580;SDS011;48640;48.770;9.148;2023-07-30T00:12:52;2.00;;;1.15;;
62580;SDS011;48640;48.770;9.148;2023-07-30T00:15:19;1.60;;;0.90;;
62580;SDS011;48640;48.770;9.148;2023-07-30T00:17:46;2.90;;;1.05;;
62580;SDS011;48640;48.770;9.148;2023-07-30T00:20:13;1.50;;;0.80;;
62580;SDS011;48640;48.770;9.148;2023-07-30T00:22:41;2.58;;;1.08;;
62580;SDS011;48640;48.770;9.148;2023-07-30T00:25:08;3.25;;;1.20;;
62580;SDS011;48640;48.770;9.148;2023-07-30T00:27:35;2.42;;;1.40;;
62580;SDS011;48640;48.770;9.148;2023-07-30T00:30:01;3.53;;;1.60;;
62580;SDS011;48640;48.770;9.148;2023-07-30T00:32:28;3.33;;;2.22;;
62580;SDS011;48640;48.770;9.148;2023-07-30T00:34:55;3.42;;;2.08;;
62580;SDS011;48640;48.770;9.148;2023-07-30T00:37:22;3.88;;;2.08;;
62580;SDS011;48640;48.770;9.148;2023-07-30T00:39:50;5.18;;;2.20;;
62580;SDS011;48640;48.770;9.148;2023-07-30T00:42:17;3.40;;;2.03;;
62580;SDS011;48640;48.770;9.148;2023-07-30T00:44:44;4.57;;;2.28;;
62580;SDS011;48640;48.770;9.148;2023-07-30T00:47:10;4.05;;;2.60;;
62580;SDS011;48640;48.770;9.148;2023-07-30T00:49:37;5.05;;;2.60;;
62580;SDS011;48640;48.770;9.148;2023-07-30T00:52:04;3.95;;;2.53;;
62580;SDS011;48640;48.770;9.148;2023-07-30T00:54:33;6.47;;;3.42;;
62580;SDS011;48640;48.770;9.148;2023-07-30T00:57:01;4.55;;;2.92;;
62580;SDS011;48640;48.770;9.148;2023-07-30T00:59:28;6.95;;;3.00;;
62580;SDS011;48640;48.770;9.148;2023-07-30T01:01:55;4.57;;;2.70;;
62580;SDS011;48640;48.770;9.148;2023-07-30T01:04:25;5.50;;;2.75;;
62580;SDS011;48640;48.770;9.148;2023-07-30T01:06:51;4.35;;;3.22;;
62580;SDS011;48640;48.770;9.148;2023-07-30T01:09:18;4.20;;;2.72;;
62580;SDS011;48640;48.770;9.148;2023-07-30T01:11:45;3.92;;;2.80;;
62580;SDS011;48640;48.770;9.148;2023-07-30T01:14:14;5.13;;;3.03;;
62580;SDS011;48640;48.770;9.148;2023-07-30T01:16:43;5.03;;;3.20;;
62580;SDS011;48640;48.770;9.148;2023-07-30T01:19:10;5.50;;;3.60;;
62580;SDS011;48640;48.770;9.148;2023-07-30T01:21:38;4.68;;;3.38;;
62580;SDS011;48640;48.770;9.148;2023-07-30T01:24:05;6.05;;;3.75;;
62580;SDS011;48640;48.770;9.148;2023-07-30T01:26:33;5.70;;;3.80;;
62580;SDS011;48640;48.770;9.148;2023-07-30T01:29:18;4.73;;;3.20;;
62580;SDS011;48640;48.770;9.148;2023-07-30T01:31:48;4.13;;;3.13;;
62580;SDS011;48640;48.770;9.148;2023-07-30T01:34:21;5.50;;;2.90;;
62580;SDS011;48640;48.770;9.148;2023-07-30T01:36:50;4.35;;;2.95;;
62580;SDS011;48640;48.770;9.148;2023-07-30T01:39:19;4.55;;;3.00;;
62580;SDS011;48640;48.770;9.148;2023-07-30T01:41:46;5.60;;;3.28;;
62580;SDS011;48640;48.770;9.148;2023-07-30T01:44:13;3.70;;;2.50;;
62580;SDS011;48640;48.770;9.148;2023-07-30T01:46:39;3.58;;;2.80;;
62580;SDS011;48640;48.770;9.148;2023-07-30T01:49:06;4.95;;;2.75;;
62580;SDS011;48640;48.770;9.148;2023-07-30T01:51:33;4.43;;;1.98;;
62580;SDS011;48640;48.770;9.148;2023-07-30T01:54:01;3.28;;;2.13;;
62580;SDS011;48640;48.770;9.148;2023-07-30T01:56:28;5.05;;;2.55;;
62580;SDS011;48640;48.770;9.148;2023-07-30T01:58:55;3.38;;;2.22;;
62580;SDS011;48640;48.770;9.148;2023-07-30T02:01:22;4.55;;;2.45;;
62580;SDS011;48640;48.770;9.148;2023-07-30T02:03:49;4.65;;;2.20;;
62580;SDS011;48640;48.770;9.148;2023-07-30T02:06:16;4.05;;;2.05;;
62580;SDS011;48640;48.770;9.148;2023-07-30T02:08:43;5.75;;;2.40;;
62580;SDS011;48640;48.770;9.148;2023-07-30T02:11:11;4.07;;;2.42;;
62580;SDS011;48640;48.770;9.148;2023-07-30T02:13:37;3.85;;;2.00;;
62580;SDS011;48640;48.770;9.148;2023-07-30T02:16:04;4.78;;;2.50;;
62580;SDS011;48640;48.770;9.148;2023-07-30T02:18:31;3.25;;;1.80;;
62580;SDS011;48640;48.770;9.148;2023-07-30T02:20:58;2.63;;;1.85;;
62580;SDS011;48640;48.770;9.148;2023-07-30T02:23:25;2.78;;;1.77;;
62580;SDS011;48640;48.770;9.148;2023-07-30T02:25:51;4.22;;;2.80;;
62580;SDS011;48640;48.770;9.148;2023-07-30T02:28:19;4.53;;;1.98;;
62580;SDS011;48640;48.770;9.148;2023-07-30T02:30:46;3.35;;;2.38;;
62580;SDS011;48640;48.770;9.148;2023-07-30T02:33:13;3.58;;;2.28;;
62580;SDS011;48640;48.770;9.148;2023-07-30T02:35:40;4.65;;;2.17;;
62580;SDS011;48640;48.770;9.148;2023-07-30T02:38:08;3.13;;;2.42;;
62580;SDS011;48640;48.770;9.148;2023-07-30T02:40:35;3.50;;;2.70;;
62580;SDS011;48640;48.770;9.148;2023-07-30T02:43:02;5.03;;;2.70;;
62580;SDS011;48640;48.770;9.148;2023-07-30T02:45:30;4.32;;;2.80;;
62580;SDS011;48640;48.770;9.148;2023-07-30T02:47:57;5.88;;;3.28;;
62580;SDS011;48640;48.770;9.148;2023-07-30T02:50:24;3.45;;;2.60;;
62580;SDS011;48640;48.770;9.148;2023-07-30T02:52:50;4.13;;;3.00;;
62580;SDS011;48640;48.770;9.148;2023-07-30T02:55:17;4.82;;;3.22;;
62580;SDS011;48640;48.770;9.148;2023-07-30T02:57:44;3.85;;;2.60;;
62580;SDS011;48640;48.770;9.148;2023-07-30T03:00:11;4.03;;;2.42;;
62580;SDS011;48640;48.770;9.148;2023-07-30T03:02:40;5.20;;;3.03;;
62580;SDS011;48640;48.770;9.148;2023-07-30T03:05:07;6.25;;;3.35;;
62580;SDS011;48640;48.770;9.148;2023-07-30T03:07:34;4.18;;;2.90;;
62580;SDS011;48640;48.770;9.148;2023-07-30T03:10:01;8.40;;;3.40;;
62580;SDS011;48640;48.770;9.148;2023-07-30T03:12:28;3.70;;;2.55;;
62580;SDS011;48640;48.770;9.148;2023-07-30T03:14:55;6.30;;;2.97;;
62580;SDS011;48640;48.770;9.148;2023-07-30T03:17:21;3.92;;;2.55;;
62580;SDS011;48640;48.770;9.148;2023-07-30T03:19:50;4.35;;;2.28;;
62580;SDS011;48640;48.770;9.148;2023-07-30T03:22:16;4.28;;;2.22;;
62580;SDS011;48640;48.770;9.148;2023-07-30T03:24:45;4.50;;;2.30;;
62580;SDS011;48640;48.770;9.148;2023-07-30T03:27:12;2.95;;;2.05;;
62580;SDS011;48640;48.770;9.148;2023-07-30T03:29:39;4.38;;;2.20;;
62580;SDS011;48640;48.770;9.148;2023-07-30T03:32:06;4.75;;;2.00;;
62580;SDS011;48640;48.770;9.148;2023-07-30T03:34:33;3.92;;;2.33;;
62580;SDS011;48640;48.770;9.148;2023-07-30T03:37:01;3.90;;;2.30;;
62580;SDS011;48640;48.770;9.148;2023-07-30T03:39:28;4.32;;;2.28;;
62580;SDS011;48640;48.770;9.148;2023-07-30T03:41:55;4.43;;;2.25;;
62580;SDS011;48640;48.770;9.148;2023-07-30T03:44:21;3.92;;;2.53;;
62580;SDS011;48640;48.770;9.148;2023-07-30T03:46:48;3.15;;;1.98;;
62580;SDS011;48640;48.770;9.148;2023-07-30T03:49:15;3.30;;;2.28;;
62580;SDS011;48640;48.770;9.148;2023-07-30T03:51:42;3.97;;;1.92;;
62580;SDS011;48640;48.770;9.148;2023-07-30T03:54:10;4.63;;;2.65;;
62580;SDS011;48640;48.770;9.148;2023-07-30T03:56:37;4.57;;;1.90;;
62580;SDS011;48640;48.770;9.148;2023-07-30T03:59:03;3.20;;;2.10;;
62580;SDS011;48640;48.770;9.148;2023-07-30T04:01:30;3.28;;;1.85;;
62580;SDS011;48640;48.770;9.148;2023-07-30T04:03:57;2.80;;;2.20;;
62580;SDS011;48640;48.770;9.148;2023-07-30T04:06:24;2.72;;;1.85;;
62580;SDS011;48640;48.770;9.148;2023-07-30T04:08:50;4.50;;;2.22;;
62580;SDS011;48640;48.770;9.148;2023-07-30T04:11:19;2.67;;;1.80;;
62580;SDS011;48640;48.770;9.148;2023-07-30T04:13:45;5.22;;;2.15;;
62580;SDS011;48640;48.770;9.148;2023-07-30T04:16:12;3.80;;;2.30;;
62580;SDS011;48640;48.770;9.148;2023-07-30T04:18:39;5.13;;;2.28;;
62580;SDS011;48640;48.770;9.148;2023-07-30T04:21:06;4.15;;;1.77;;
62580;SDS011;48640;48.770;9.148;2023-07-30T04:23:32;3.33;;;1.88;;
62580;SDS011;48640;48.770;9.148;2023-07-30T04:25:59;3.63;;;2.05;;
62580;SDS011;48640;48.770;9.148;2023-07-30T04:28:27;2.95;;;1.63;;
62580;SDS011;48640;48.770;9.148;2023-07-30T04:30:54;2.25;;;1.50;;
62580;SDS011;48640;48.770;9.148;2023-07-30T04:33:21;2.97;;;1.80;;
62580;SDS011;48640;48.770;9.148;2023-07-30T04:35:48;3.85;;;2.30;;
62580;SDS011;48640;48.770;9.148;2023-07-30T04:38:14;2.22;;;1.63;;
62580;SDS011;48640;48.770;9.148;2023-07-30T04:40:41;3.00;;;2.00;;
62580;SDS011;48640;48.770;9.148;2023-07-30T04:43:08;4.10;;;1.75;;
62580;SDS011;48640;48.770;9.148;2023-07-30T04:45:36;4.00;;;1.75;;
62580;SDS011;48640;48.770;9.148;2023-07-30T04:48:03;2.70;;;1.83;;
62580;SDS011;48640;48.770;9.148;2023-07-30T04:50:30;2.97;;;1.85;;
62580;SDS011;48640;48.770;9.148;2023-07-30T04:52:57;3.20;;;1.80;;
62580;SDS011;48640;48.770;9.148;2023-07-30T04:55:24;4.18;;;1.77;;
62580;SDS011;48640;48.770;9.148;2023-07-30T04:57:51;3.00;;;1.80;;
62580;SDS011;48640;48.770;9.148;2023-07-30T05:00:17;3.92;;;1.92;;
62580;SDS011;48640;48.770;9.148;2023-07-30T05:02:45;5.47;;;2.50;;
62580;SDS011;48640;48.770;9.148;2023-07-30T05:05:12;4.45;;;2.00;;
62580;SDS011;48640;48.770;9.148;2023-07-30T05:07:39;5.57;;;2.95;;
62580;SDS011;48640;48.770;9.148;2023-07-30T05:10:06;3.60;;;1.83;;
62580;SDS011;48640;48.770;9.148;2023-07-30T05:12:35;2.95;;;1.70;;
62580;SDS011;48640;48.770;9.148;2023-07-30T05:15:03;4.70;;;1.98;;
62580;SDS011;48640;48.770;9.148;2023-07-30T05:17:30;2.85;;;2.10;;
62580;SDS011;48640;48.770;9.148;2023-07-30T05:19:58;2.88;;;1.92;;
62580;SDS011;48640;48.770;9.148;2023-07-30T05:22:25;3.10;;;2.10;;
62580;SDS011;48640;48.770;9.148;2023-07-30T05:24:52;3.40;;;2.00;;
62580;SDS011;48640;48.770;9.148;2023-07-30T05:27:19;4.60;;;2.03;;
62580;SDS011;48640;48.770;9.148;2023-07-30T05:29:46;3.58;;;1.83;;
62580;SDS011;48640;48.770;9.148;2023-07-30T05:32:12;3.28;;;2.28;;
62580;SDS011;48640;48.770;9.148;2023-07-30T05:34:39;3.30;;;2.10;;
62580;SDS011;48640;48.770;9.148;2023-07-30T05:37:07;3.53;;;2.17;;
62580;SDS011;48640;48.770;9.148;2023-07-30T05:39:34;6.60;;;2.30;;
62580;SDS011;48640;48.770;9.148;2023-07-30T05:42:01;5.43;;;2.25;;
62580;SDS011;48640;48.770;9.148;2023-07-30T05:44:28;3.95;;;1.90;;
62580;SDS011;48640;48.770;9.148;2023-07-30T05:46:54;3.03;;;2.00;;
62580;SDS011;48640;48.770;9.148;2023-07-30T05:49:21;3.28;;;1.92;;
62580;SDS011;48640;48.770;9.148;2023-07-30T05:51:48;6.53;;;2.53;;
62580;SDS011;48640;48.770;9.148;2023-07-30T05:54:16;4.18;;;2.38;;
62580;SDS011;48640;48.770;9.148;2023-07-30T05:56:43;4.00;;;2.40;;
62580;SDS011;48640;48.770;9.148;2023-07-30T05:59:10;4.63;;;2.20;;
62580;SDS011;48640;48.770;9.148;2023-07-30T06:01:36;2.92;;;2.03;;
62580;SDS011;48640;48.770;9.148;2023-07-30T06:04:03;3.80;;;2.53;;
62580;SDS011;48640;48.770;9.148;2023-07-30T06:06:30;4.47;;;2.30;;
62580;SDS011;48640;48.770;9.148;2023-07-30T06:08:57;3.92;;;2.08;;
62580;SDS011;48640;48.770;9.148;2023-07-30T06:11:25;3.53;;;2.10;;
62580;SDS011;48640;48.770;9.148;2023-07-30T06:13:53;3.53;;;2.17;;
62580;SDS011;48640;48.770;9.148;2023-07-30T06:16:19;4.85;;;2.35;;
62580;SDS011;48640;48.770;9.148;2023-07-30T06:18:46;5.82;;;1.98;;
62580;SDS011;48640;48.770;9.148;2023-07-30T06:21:13;3.88;;;1.92;;
62580;SDS011;48640;48.770;9.148;2023-07-30T06:23:40;4.30;;;2.97;;
62580;SDS011;48640;48.770;9.148;2023-07-30T06:26:07;5.38;;;1.75;;
62580;SDS011;48640;48.770;9.148;2023-07-30T06:28:35;2.92;;;1.80;;
62580;SDS011;48640;48.770;9.148;2023-07-30T06:31:02;2.50;;;1.70;;
62580;SDS011;48640;48.770;9.148;2023-07-30T06:33:29;3.10;;;1.80;;
62580;SDS011;48640;48.770;9.148;2023-07-30T06:35:55;3.50;;;1.80;;
62580;SDS011;48640;48.770;9.148;2023-07-30T06:38:22;4.70;;;1.60;;
62580;SDS011;48640;48.770;9.148;2023-07-30T06:40:49;2.10;;;1.30;;
62580;SDS011;48640;48.770;9.148;2023-07-30T06:43:16;3.42;;;1.42;;
62580;SDS011;48640;48.770;9.148;2023-07-30T06:45:44;3.60;;;1.55;;
62580;SDS011;48640;48.770;9.148;2023-07-30T06:48:11;2.22;;;1.23;;
62580;SDS011;48640;48.770;9.148;2023-07-30T06:50:37;2.22;;;1.50;;
62580;SDS011;48640;48.770;9.148;2023-07-30T06:53:04;2.50;;;1.20;;
62580;SDS011;48640;48.770;9.148;2023-07-30T06:55:31;4.43;;;1.38;;
62580;SDS011;48640;48.770;9.148;2023-07-30T06:57:58;2.78;;;1.10;;
62580;SDS011;48640;48.770;9.148;2023-07-30T07:00:25;3.38;;;1.30;;
62580;SDS011;48640;48.770;9.148;2023-07-30T07:02:53;2.38;;;1.13;;
62580;SDS011;48640;48.770;9.148;2023-07-30T07:05:20;3.22;;;1.27;;
62580;SDS011;48640;48.770;9.148;2023-07-30T07:07:47;3.75;;;1.48;;
62580;SDS011;48640;48.770;9.148;2023-07-30T07:10:14;4.72;;;1.50;;
62580;SDS011;48640;48.770;9.148;2023-07-30T07:12:41;2.45;;;1.40;;
62580;SDS011;48640;48.770;9.148;2023-07-30T07:15:08;2.38;;;1.20;;
62580;SDS011;48640;48.770;9.148;2023-07-30T07:17:35;2.60;;;1.30;;
62580;SDS011;48640;48.770;9.148;2023-07-30T07:20:04;3.83;;;1.55;;
62580;SDS011;48640;48.770;9.148;2023-07-30T07:22:32;2.55;;;1.30;;
62580;SDS011;48640;48.770;9.148;2023-07-30T07:24:59;3.30;;;1.40;;
62580;SDS011;48640;48.770;9.148;2023-07-30T07:27:26;3.97;;;1.70;;
62580;SDS011;48640;48.770;9.148;2023-07-30T07:29:53;3.13;;;1.20;;
62580;SDS011;48640;48.770;9.148;2023-07-30T07:32:19;2.50;;;1.50;;
62580;SDS011;48640;48.770;9.148;2023-07-30T07:34:47;3.50;;;1.25;;
62580;SDS011;48640;48.770;9.148;2023-07-30T07:37:15;2.65;;;1.35;;
62580;SDS011;48640;48.770;9.148;2023-07-30T07:39:43;3.15;;;1.48;;
62580;SDS011;48640;48.770;9.148;2023-07-30T07:42:10;3.70;;;1.17;;
62580;SDS011;48640;48.770;9.148;2023-07-30T07:44:37;3.22;;;1.10;;
62580;SDS011;48640;48.770;9.148;2023-07-30T07:47:04;2.42;;;1.25;;
62580;SDS011;48640;48.770;9.148;2023-07-30T07:49:31;3.30;;;1.50;;
62580;SDS011;48640;48.770;9.148;2023-07-30T07:51:58;2.30;;;1.45;;
62580;SDS011;48640;48.770;9.148;2023-07-30T07:54:26;2.92;;;1.30;;
62580;SDS011;48640;48.770;9.148;2023-07-30T07:56:53;3.20;;;1.40;;
62580;SDS011;48640;48.770;9.148;2023-07-30T07:59:20;2.10;;;1.00;;
62580;SDS011;48640;48.770;9.148;2023-07-30T08:01:46;1.92;;;1.10;;
62580;SDS011;48640;48.770;9.148;2023-07-30T08:04:13;2.22;;;1.17;;
62580;SDS011;48640;48.770;9.148;2023-07-30T08:06:40;2.35;;;1.20;;
62580;SDS011;48640;48.770;9.148;2023-07-30T08:09:07;2.00;;;1.20;;
62580;SDS011;48640;48.770;9.148;2023-07-30T08:11:35;2.88;;;1.40;;
62580;SDS011;48640;48.770;9.148;2023-07-30T08:14:02;4.20;;;1.10;;
62580;SDS011;48640;48.770;9.148;2023-07-30T08:16:28;1.65;;;1.02;;
62580;SDS011;48640;48.770;9.148;2023-07-30T08:18:55;2.50;;;1.20;;
62580;SDS011;48640;48.770;9.148;2023-07-30T08:21:22;2.65;;;1.10;;
62580;SDS011;48640;48.770;9.148;2023-07-30T08:23:49;1.55;;;0.90;;
62580;SDS011;48640;48.770;9.148;2023-07-30T08:26:16;1.60;;;0.95;;
62580;SDS011;48640;48.770;9.148;2023-07-30T08:28:44;2.10;;;1.15;;
62580;SDS011;48640;48.770;9.148;2023-07-30T08:31:10;2.53;;;0.95;;
62580;SDS011;48640;48.770;9.148;2023-07-30T08:33:37;2.83;;;1.23;;
62580;SDS011;48640;48.770;9.148;2023-07-30T08:36:04;2.28;;;1.10;;
62580;SDS011;48640;48.770;9.148;2023-07-30T08:38:31;2.42;;;1.00;;
62580;SDS011;48640;48.770;9.148;2023-07-30T08:40:57;1.45;;;0.90;;
62580;SDS011;48640;48.770;9.148;2023-07-30T08:43:25;2.15;;;1.10;;
62580;SDS011;48640;48.770;9.148;2023-07-30T08:45:53;4.93;;;1.35;;
62580;SDS011;48640;48.770;9.148;2023-07-30T08:48:20;1.70;;;1.00;;
62580;SDS011;48640;48.770;9.148;2023-07-30T08:50:46;2.38;;;1.02;;
62580;SDS011;48640;48.770;9.148;2023-07-30T08:53:15;3.08;;;1.10;;
62580;SDS011;48640;48.770;9.148;2023-07-30T08:55:43;1.98;;;1.20;;
62580;SDS011;48640;48.770;9.148;2023-07-30T08:58:10;2.72;;;1.13;;
62580;SDS011;48640;48.770;9.148;2023-07-30T09:00:38;1.85;;;1.02;;
62580;SDS011;48640;48.770;9.148;2023-07-30T09:03:09;2.17;;;1.10;;
62580;SDS011;48640;48.770;9.148;2023-07-30T09:05:41;1.55;;;1.00;;
62580;SDS011;48640;48.770;9.148;2023-07-30T09:08:07;1.70;;;1.27;;
62580;SDS011;48640;48.770;9.148;2023-07-30T09:10:35;2.40;;;1.10;;
62580;SDS011;48640;48.770;9.148;2023-07-30T09:13:02;3.28;;;1.20;;
62580;SDS011;48640;48.770;9.148;2023-07-30T09:15:29;1.55;;;0.90;;
62580;SDS011;48640;48.770;9.148;2023-07-30T09:17:58;1.80;;;1.00;;
62580;SDS011;48640;48.770;9.148;2023-07-30T09:20:26;2.00;;;1.30;;
62580;SDS011;48640;48.770;9.148;2023-07-30T09:22:55;2.10;;;1.35;;
62580;SDS011;48640;48.770;9.148;2023-07-30T09:27:50;2.30;;;1.35;;
62580;SDS011;48640;48.770;9.148;2023-07-30T09:30:21;1.88;;;1.02;;
62580;SDS011;48640;48.770;9.148;2023-07-30T09:32:50;2.08;;;1.38;;
62580;SDS011;48640;48.770;9.148;2023-07-30T09:35:18;2.25;;;1.45;;
62580;SDS011;48640;48.770;9.148;2023-07-30T09:37:47;3.75;;;1.50;;
62580;SDS011;48640;48.770;9.148;2023-07-30T09:40:14;2.40;;;1.10;;
62580;SDS011;48640;48.770;9.148;2023-07-30T09:42:44;3.45;;;1.50;;
62580;SDS011;48640;48.770;9.148;2023-07-30T09:45:20;3.35;;;1.55;;
62580;SDS011;48640;48.770;9.148;2023-07-30T09:47:49;2.80;;;1.60;;
62580;SDS011;48640;48.770;9.148;2023-07-30T09:50:22;1.90;;;1.05;;
62580;SDS011;48640;48.770;9.148;2023-07-30T09:53:02;2.83;;;1.40;;
62580;SDS011;48640;48.770;9.148;2023-07-30T09:55:30;2.20;;;1.20;;
62580;SDS011;48640;48.770;9.148;2023-07-30T09:57:57;2.75;;;1.83;;
62580;SDS011;48640;48.770;9.148;2023-07-30T10:00:24;3.70;;;1.77;;
62580;SDS011;48640;48.770;9.148;2023-07-30T10:02:51;2.40;;;1.10;;
62580;SDS011;48640;48.770;9.148;2023-07-30T10:05:21;3.70;;;1.50;;
62580;SDS011;48640;48.770;9.148;2023-07-30T10:07:55;3.13;;;1.70;;
62580;SDS011;48640;48.770;9.148;2023-07-30T10:10:26;2.35;;;1.25;;
62580;SDS011;48640;48.770;9.148;2023-07-30T10:12:55;5.50;;;1.63;;
62580;SDS011;48640;48.770;9.148;2023-07-30T10:15:26;3.90;;;1.70;;
62580;SDS011;48640;48.770;9.148;2023-07-30T10:17:53;2.63;;;1.45;;
62580;SDS011;48640;48.770;9.148;2023-07-30T10:20:24;3.10;;;1.65;;
62580;SDS011;48640;48.770;9.148;2023-07-30T10:22:52;3.03;;;1.58;;
62580;SDS011;48640;48.770;9.148;2023-07-30T10:25:20;2.30;;;1.40;;
62580;SDS011;48640;48.770;9.148;2023-07-30T10:27:50;3.58;;;1.50;;
62580;SDS011;48640;48.770;9.148;2023-07-30T10:30:19;2.97;;;1.40;;
62580;SDS011;48640;48.770;9.148;2023-07-30T10:33:00;2.50;;;1.40;;
62580;SDS011;48640;48.770;9.148;2023-07-30T10:35:34;2.85;;;1.60;;
62580;SDS011;48640;48.770;9.148;2023-07-30T10:38:11;2.65;;;1.50;;
62580;SDS011;48640;48.770;9.148;2023-07-30T10:40:39;2.67;;;1.67;;
62580;SDS011;48640;48.770;9.148;2023-07-30T10:43:15;3.38;;;1.52;;
62580;SDS011;48640;48.770;9.148;2023-07-30T10:45:48;2.40;;;1.50;;
62580;SDS011;48640;48.770;9.148;2023-07-30T10:48:15;2.50;;;1.40;;
62580;SDS011;48640;48.770;9.148;2023-07-30T10:50:42;2.50;;;1.40;;
62580;SDS011;48640;48.770;9.148;2023-07-30T10:53:13;2.65;;;1.60;;
62580;SDS011;48640;48.770;9.148;2023-07-30T10:55:41;3.70;;;1.60;;
62580;SDS011;48640;48.770;9.148;2023-07-30T10:58:08;3.55;;;1.85;;
62580;SDS011;48640;48.770;9.148;2023-07-30T11:00:36;3.75;;;1.48;;
62580;SDS011;48640;48.770;9.148;2023-07-30T11:03:03;2.35;;;1.42;;
62580;SDS011;48640;48.770;9.148;2023-07-30T11:05:30;2.42;;;1.38;;
62580;SDS011;48640;48.770;9.148;2023-07-30T11:07:57;2.30;;;1.30;;
62580;SDS011;48640;48.770;9.148;2023-07-30T11:10:24;2.85;;;1.60;;
62580;SDS011;48640;48.770;9.148;2023-07-30T11:12:51;2.95;;;1.80;;
62580;SDS011;48640;48.770;9.148;2023-07-30T11:15:18;3.35;;;1.83;;
62580;SDS011;48640;48.770;9.148;2023-07-30T11:17:46;2.47;;;1.40;;
62580;SDS011;48640;48.770;9.148;2023-07-30T11:20:23;4.85;;;1.75;;
62580;SDS011;48640;48.770;9.148;2023-07-30T11:22:52;2.90;;;1.60;;
62580;SDS011;48640;48.770;9.148;2023-07-30T11:25:19;3.17;;;1.60;;
62580;SDS011;48640;48.770;9.148;2023-07-30T11:27:46;2.67;;;1.88;;
62580;SDS011;48640;48.770;9.148;2023-07-30T11:30:13;3.35;;;1.60;;
62580;SDS011;48640;48.770;9.148;2023-07-30T11:32:39;3.50;;;1.73;;
62580;SDS011;48640;48.770;9.148;2023-07-30T11:35:09;3.00;;;1.88;;
62580;SDS011;48640;48.770;9.148;2023-07-30T11:37:36;3.80;;;1.50;;
62580;SDS011;48640;48.770;9.148;2023-07-30T11:40:06;2.28;;;1.52;;
62580;SDS011;48640;48.770;9.148;2023-07-30T11:42:33;3.67;;;1.27;;
62580;SDS011;48640;48.770;9.148;2023-07-30T11:47:46;2.13;;;1.20;;
62580;SDS011;48640;48.770;9.148;2023-07-30T11:50:14;2.50;;;1.52;;
62580;SDS011;48640;48.770;9.148;2023-07-30T11:52:51;3.90;;;1.30;;
62580;SDS011;48640;48.770;9.148;2023-07-30T11:55:19;4.38;;;2.25;;
62580;SDS011;48640;48.770;9.148;2023-07-30T11:57:46;3.10;;;1.70;;
62580;SDS011;48640;48.770;9.148;2023-07-30T12:00:13;3.45;;;1.40;;
62580;SDS011;48640;48.770;9.148;2023-07-30T12:02:40;3.53;;;1.83;;
62580;SDS011;48640;48.770;9.148;2023-07-30T12:05:09;2.95;;;1.70;;
62580;SDS011;48640;48.770;9.148;2023-07-30T12:07:40;3.85;;;1.60;;
62580;SDS011;48640;48.770;9.148;2023-07-30T12:10:08;2.25;;;1.40;;
62580;SDS011;48640;48.770;9.148;2023-07-30T12:12:36;3.33;;;1.42;;
62580;SDS011;48640;48.770;9.148;2023-07-30T12:15:09;2.25;;;1.42;;
62580;SDS011;48640;48.770;9.148;2023-07-30T12:17:37;3.95;;;1.58;;
62580;SDS011;48640;48.770;9.148;2023-07-30T12:20:04;4.03;;;1.67;;
62580;SDS011;48640;48.770;9.148;2023-07-30T12:22:32;3.55;;;1.55;;
62580;SDS011;48640;48.770;9.148;2023-07-30T12:25:01;3.10;;;1.70;;
62580;SDS011;48640;48.770;9.148;2023-07-30T12:27:28;2.70;;;1.17;;
62580;SDS011;48640;48.770;9.148;2023-07-30T12:29:55;3.10;;;1.52;;
62580;SDS011;48640;48.770;9.148;2023-07-30T12:32:22;2.63;;;1.75;;
62580;SDS011;48640;48.770;9.148;2023-07-30T12:34:49;4.63;;;1.70;;
62580;SDS011;48640;48.770;9.148;2023-07-30T12:37:16;3.47;;;1.40;;
62580;SDS011;48640;48.770;9.148;2023-07-30T12:39:43;2.80;;;1.20;;
62580;SDS011;48640;48.770;9.148;2023-07-30T12:42:11;4.40;;;1.50;;
62580;SDS011;48640;48.770;9.148;2023-07-30T12:44:38;3.17;;;1.35;;
62580;SDS011;48640;48.770;9.148;2023-07-30T12:47:05;4.13;;;1.63;;
62580;SDS011;48640;48.770;9.148;2023-07-30T12:49:32;3.60;;;1.30;;
62580;SDS011;48640;48.770;9.148;2023-07-30T12:51:58;3.55;;;1.95;;
62580;SDS011;48640;48.770;9.148;2023-07-30T12:54:25;2.55;;;1.42;;
62580;SDS011;48640;48.770;9.148;2023-07-30T12:56:52;2.40;;;1.52;;
62580;SDS011;48640;48.770;9.148;2023-07-30T12:59:20;3.47;;;1.38;;
62580;SDS011;48640;48.770;9.148;2023-07-30T13:01:47;3.10;;;1.63;;
62580;SDS011;48640;48.770;9.148;2023-07-30T13:04:13;3.78;;;1.35;;
62580;SDS011;48640;48.770;9.148;2023-07-30T13:06:40;4.78;;;1.70;;
62580;SDS011;48640;48.770;9.148;2023-07-30T13:09:07;3.25;;;1.63;;
62580;SDS011;48640;48.770;9.148;2023-07-30T13:11:34;3.13;;;1.67;;
62580;SDS011;48640;48.770;9.148;2023-07-30T13:14:02;3.53;;;1.80;;
62580;SDS011;48640;48.770;9.148;2023-07-30T13:16:30;2.55;;;1.58;;
62580;SDS011;48640;48.770;9.148;2023-07-30T13:18:57;3.78;;;1.40;;
62580;SDS011;48640;48.770;9.148;2023-07-30T13:21:24;3.42;;;1.23;;
62580;SDS011;48640;48.770;9.148;2023-07-30T13:23:50;3.70;;;1.80;;
62580;SDS011;48640;48.770;9.148;2023-07-30T13:26:18;4.82;;;1.60;;
62580;SDS011;48640;48.770;9.148;2023-07-30T13:28:44;2.60;;;1.48;;
62580;SDS011;48640;48.770;9.148;2023-07-30T13:31:11;4.25;;;1.60;;
62580;SDS011;48640;48.770;9.148;2023-07-30T13:33:39;2.58;;;1.38;;
62580;SDS011;48640;48.770;9.148;2023-07-30T13:36:07;4.60;;;1.45;;
62580;SDS011;48640;48.770;9.148;2023-07-30T13:38:34;2.85;;;1.50;;
62580;SDS011;48640;48.770;9.148;2023-07-30T13:41:01;6.00;;;1.60;;
62580;SDS011;48640;48.770;9.148;2023-07-30T13:43:28;3.75;;;1.38;;
62580;SDS011;48640;48.770;9.148;2023-07-30T13:45:55;3.20;;;1.38;;
62580;SDS011;48640;48.770;9.148;2023-07-30T13:48:22;3.35;;;1.48;;
62580;SDS011;48640;48.770;9.148;2023-07-30T13:50:51;3.58;;;1.90;;
62580;SDS011;48640;48.770;9.148;2023-07-30T13:53:18;4.70;;;1.92;;
62580;SDS011;48640;48.770;9.148;2023-07-30T13:55:44;3.42;;;1.30;;
62580;SDS011;48640;48.770;9.148;2023-07-30T13:58:11;3.28;;;1.35;;
62580;SDS011;48640;48.770;9.148;2023-07-30T14:00:40;3.08;;;1.42;;
62580;SDS011;48640;48.770;9.148;2023-07-30T14:03:07;3.72;;;1.40;;
62580;SDS011;48640;48.770;9.148;2023-07-30T14:05:34;3.50;;;1.35;;
62580;SDS011;48640;48.770;9.148;2023-07-30T14:08:02;4.75;;;1.45;;
62580;SDS011;48640;48.770;9.148;2023-07-30T14:10:29;3.92;;;1.50;;
62580;SDS011;48640;48.770;9.148;2023-07-30T14:12:56;2.80;;;1.35;;
62580;SDS011;48640;48.770;9.148;2023-07-30T14:15:23;3.33;;;1.40;;
62580;SDS011;48640;48.770;9.148;2023-07-30T14:17:50;4.40;;;1.52;;
62580;SDS011;48640;48.770;9.148;2023-07-30T14:20:17;4.90;;;1.60;;
62580;SDS011;48640;48.770;9.148;2023-07-30T14:22:44;4.03;;;1.80;;
62580;SDS011;48640;48.770;9.148;2023-07-30T14:25:12;6.90;;;1.73;;
62580;SDS011;48640;48.770;9.148;2023-07-30T14:27:39;4.93;;;1.75;;
62580;SDS011;48640;48.770;9.148;2023-07-30T14:30:06;3.00;;;1.52;;
62580;SDS011;48640;48.770;9.148;2023-07-30T14:32:34;4.55;;;1.63;;
62580;SDS011;48640;48.770;9.148;2023-07-30T14:35:01;3.88;;;1.65;;
62580;SDS011;48640;48.770;9.148;2023-07-30T14:37:27;3.20;;;1.67;;
62580;SDS011;48640;48.770;9.148;2023-07-30T14:39:54;3.10;;;1.25;;
62580;SDS011;48640;48.770;9.148;2023-07-30T14:42:22;4.05;;;1.52;;
62580;SDS011;48640;48.770;9.148;2023-07-30T14:44:49;3.80;;;1.50;;
62580;SDS011;48640;48.770;9.148;2023-07-30T14:47:16;3.30;;;1.58;;
62580;SDS011;48640;48.770;9.148;2023-07-30T14:49:43;3.88;;;1.30;;
62580;SDS011;48640;48.770;9.148;2023-07-30T14:52:10;4.78;;;1.35;;
62580;SDS011;48640;48.770;9.148;2023-07-30T14:54:37;2.10;;;1.20;;